createdAt,value
2023-04-09T00:04:26.522Z,2.77
2023-04-09T00:09:22.821Z,2.90
2023-04-09T00:14:19.258Z,3.05
2023-04-09T00:19:15.715Z,3.30
2023-04-09T00:24:12.164Z,3.26
2023-04-09T00:29:08.452Z,3.03
2023-04-09T00:34:05.332Z,2.99
2023-04-09T00:39:01.582Z,2.95
2023-04-09T00:43:57.815Z,2.89
2023-04-09T00:48:54.286Z,2.89
2023-04-09T00:53:50.749Z,2.82
2023-04-09T00:58:46.988Z,2.84
2023-04-09T01:03:43.371Z,2.71
2023-04-09T01:08:54.606Z,2.67
2023-04-09T01:13:59.330Z,2.75
2023-04-09T01:18:58.231Z,2.63
2023-04-09T01:24:19.159Z,2.58
2023-04-09T01:29:16.548Z,2.57
2023-04-09T01:34:14.017Z,2.51
2023-04-09T01:39:10.480Z,2.47
2023-04-09T01:44:07.742Z,2.40
2023-04-09T01:49:04.273Z,2.39
2023-04-09T01:54:00.749Z,2.39
2023-04-09T01:58:57.000Z,2.34
2023-04-09T02:03:58.329Z,2.36
2023-04-09T02:08:55.338Z,2.43
2023-04-09T02:13:54.259Z,2.48
2023-04-09T02:18:54.902Z,2.58
2023-04-09T02:23:51.427Z,2.46
2023-04-09T02:28:48.019Z,2.28
2023-04-09T02:33:44.249Z,2.33
2023-04-09T02:38:43.574Z,2.30
2023-04-09T02:43:39.840Z,2.30
2023-04-09T02:48:36.110Z,2.37
2023-04-09T02:53:32.348Z,2.43
2023-04-09T02:58:28.877Z,2.42
2023-04-09T03:03:25.442Z,2.37
2023-04-09T03:08:21.695Z,2.32
2023-04-09T03:13:17.969Z,2.26
2023-04-09T03:18:14.621Z,2.11
2023-04-09T03:23:11.039Z,2.08
2023-04-09T03:28:07.260Z,2.30
2023-04-09T03:33:03.627Z,2.31
2023-04-09T03:37:59.911Z,2.18
2023-04-09T03:42:56.141Z,2.19
2023-04-09T03:47:52.477Z,2.08
2023-04-09T03:52:48.820Z,2.15
2023-04-09T03:57:45.098Z,2.19
2023-04-09T04:02:41.524Z,2.18
2023-04-09T04:07:38.201Z,2.14
2023-04-09T04:12:34.458Z,2.11
2023-04-09T04:17:30.725Z,2.15
2023-04-09T04:22:26.963Z,2.11
2023-04-09T04:27:23.237Z,2.00
2023-04-09T04:32:19.455Z,1.97
2023-04-09T04:37:15.891Z,1.78
2023-04-09T04:42:12.117Z,1.89
2023-04-09T04:47:08.380Z,1.86
2023-04-09T04:52:04.756Z,1.76
2023-04-09T04:57:01.467Z,1.82
2023-04-09T05:01:57.818Z,1.94
2023-04-09T05:06:54.087Z,1.85
2023-04-09T05:11:50.375Z,1.89
2023-04-09T05:16:47.110Z,1.96
2023-04-09T05:21:44.107Z,2.01
2023-04-09T05:26:41.335Z,2.53
2023-04-09T05:31:37.784Z,2.84
2023-04-09T05:36:34.030Z,2.67
2023-04-09T05:41:30.290Z,3.06
2023-04-09T05:46:27.301Z,3.35
2023-04-09T05:51:23.661Z,3.39
2023-04-09T05:56:22.662Z,3.93
2023-04-09T06:01:19.562Z,4.11
2023-04-09T06:06:16.435Z,4.14
2023-04-09T06:11:13.374Z,3.83
2023-04-09T06:16:10.440Z,4.11
2023-04-09T06:21:07.529Z,4.02
2023-04-09T06:26:03.818Z,4.36
2023-04-09T06:31:00.290Z,4.27
2023-04-09T06:35:56.583Z,4.14
2023-04-09T06:40:52.855Z,4.35
2023-04-09T06:45:49.516Z,4.24
2023-04-09T06:50:45.828Z,3.95
2023-04-09T06:55:42.128Z,4.04
2023-04-09T07:00:38.445Z,4.20
2023-04-09T07:05:34.879Z,4.40
2023-04-09T07:10:31.301Z,4.57
2023-04-09T07:15:27.554Z,4.96
2023-04-09T07:20:23.877Z,5.14
2023-04-09T07:25:21.219Z,4.99
2023-04-09T07:30:17.536Z,5.12
2023-04-09T07:35:13.812Z,5.20
2023-04-09T07:40:10.719Z,5.59
2023-04-09T07:45:07.763Z,5.58
2023-04-09T07:50:04.172Z,5.72
2023-04-09T07:55:00.681Z,6.12
2023-04-09T07:59:56.969Z,6.56
2023-04-09T08:04:53.293Z,7.23
2023-04-09T08:09:49.618Z,6.60
2023-04-09T08:14:45.950Z,6.13
2023-04-09T08:19:42.295Z,5.80
2023-04-09T08:24:40.141Z,6.26
2023-04-09T08:29:36.443Z,6.52
2023-04-09T08:34:32.678Z,7.16
2023-04-09T08:39:28.948Z,7.54
2023-04-09T08:44:28.671Z,7.49
2023-04-09T08:49:24.924Z,7.47
2023-04-09T08:54:21.195Z,7.84
2023-04-09T08:59:21.149Z,8.20
2023-04-09T09:04:17.522Z,8.99
2023-04-09T09:09:14.821Z,9.02
2023-04-09T09:14:15.968Z,8.93
2023-04-09T09:19:28.549Z,9.24
2023-04-09T09:24:24.776Z,9.74
2023-04-09T09:29:21.196Z,9.37
2023-04-09T09:34:18.185Z,9.63
2023-04-09T09:39:17.178Z,9.30
2023-04-09T09:44:30.587Z,9.54
2023-04-09T09:49:27.104Z,9.32
2023-04-09T09:54:25.250Z,9.21
2023-04-09T09:59:23.105Z,9.44
2023-04-09T10:04:19.982Z,9.78
2023-04-09T10:09:16.544Z,9.71
2023-04-09T10:14:13.511Z,10.06
2023-04-09T10:19:14.047Z,10.56
2023-04-09T10:24:10.607Z,10.92
2023-04-09T10:29:08.128Z,11.02
2023-04-09T10:34:04.696Z,11.80
2023-04-09T10:39:11.465Z,12.14
2023-04-09T10:44:19.638Z,12.05
2023-04-09T10:49:17.877Z,12.19
2023-04-09T10:54:32.569Z,12.14
2023-04-09T10:59:28.838Z,11.95
2023-04-09T11:04:28.677Z,12.27
2023-04-09T11:09:24.972Z,12.11
2023-04-09T11:14:21.604Z,11.89
2023-04-09T11:19:18.719Z,12.29
2023-04-09T11:24:15.519Z,12.47
2023-04-09T11:29:12.853Z,12.59
2023-04-09T11:34:10.116Z,12.62
2023-04-09T11:39:06.534Z,12.66
2023-04-09T11:44:06.453Z,12.70
2023-04-09T11:49:03.158Z,12.81
2023-04-09T11:54:06.407Z,12.66
2023-04-09T11:59:03.241Z,12.61
2023-04-09T12:04:00.772Z,12.62
2023-04-09T12:08:58.374Z,12.84
2023-04-09T12:14:04.389Z,12.85
2023-04-09T12:19:07.390Z,12.86
2023-04-09T12:24:03.707Z,12.93
2023-04-09T12:29:00.232Z,13.35
2023-04-09T12:33:56.792Z,13.53
2023-04-09T12:38:53.416Z,13.50
2023-04-09T12:43:50.218Z,13.27
2023-04-09T12:48:47.094Z,13.42
2023-04-09T12:53:43.384Z,13.20
2023-04-09T12:58:39.697Z,13.16
2023-04-09T13:03:36.207Z,13.21
2023-04-09T13:08:32.871Z,13.25
2023-04-09T13:13:29.705Z,13.21
2023-04-09T13:18:26.126Z,13.16
2023-04-09T13:23:22.462Z,13.58
2023-04-09T13:28:18.895Z,13.54
2023-04-09T13:33:15.428Z,13.81
2023-04-09T13:38:11.886Z,13.70
2023-04-09T13:43:08.337Z,14.06
2023-04-09T13:48:06.179Z,14.18
2023-04-09T13:53:05.216Z,14.41
2023-04-09T13:58:01.517Z,14.52
2023-04-09T14:02:58.392Z,14.46
2023-04-09T14:07:54.732Z,13.68
2023-04-09T14:12:51.424Z,13.85
2023-04-09T14:17:47.735Z,13.87
2023-04-09T14:22:49.013Z,13.83
2023-04-09T14:27:45.593Z,13.44
2023-04-09T14:32:43.158Z,13.76
2023-04-09T14:37:41.070Z,13.90
2023-04-09T14:42:37.468Z,13.69
2023-04-09T14:47:33.833Z,13.60
2023-04-09T14:52:30.546Z,13.52
2023-04-09T14:57:26.850Z,13.30
2023-04-09T15:02:23.235Z,13.23
2023-04-09T15:07:19.624Z,13.39
2023-04-09T15:12:16.145Z,13.01
2023-04-09T15:17:12.454Z,13.01
2023-04-09T15:22:08.754Z,12.88
2023-04-09T15:27:05.598Z,12.89
2023-04-09T15:32:02.362Z,12.92
2023-04-09T15:36:58.785Z,13.01
2023-04-09T15:41:58.293Z,12.90
2023-04-09T15:46:54.579Z,12.78
2023-04-09T15:51:50.851Z,12.73
2023-04-09T15:56:47.217Z,12.87
2023-04-09T16:01:44.241Z,12.48
2023-04-09T16:06:40.657Z,12.57
2023-04-09T16:11:37.516Z,12.61
2023-04-09T16:16:33.896Z,12.56
2023-04-09T16:21:30.227Z,12.39
2023-04-09T16:26:26.547Z,12.36
2023-04-09T16:31:23.072Z,12.41
2023-04-09T16:36:19.441Z,12.51
2023-04-09T16:41:15.794Z,12.77
2023-04-09T16:46:12.203Z,12.90
2023-04-09T16:51:08.694Z,13.03
2023-04-09T16:56:05.202Z,12.95
2023-04-09T17:01:02.050Z,12.75
2023-04-09T17:05:58.558Z,12.54
2023-04-09T17:11:01.748Z,12.47
2023-04-09T17:15:58.700Z,12.71
2023-04-09T17:20:55.090Z,13.91
2023-04-09T17:25:51.552Z,16.44
2023-04-09T17:30:48.022Z,18.36
2023-04-09T17:35:44.656Z,19.21
2023-04-09T17:40:41.006Z,18.10
2023-04-09T17:45:37.337Z,15.48
2023-04-09T17:50:33.629Z,13.47
2023-04-09T17:55:30.544Z,12.14
2023-04-09T18:00:26.967Z,11.18
2023-04-09T18:05:23.692Z,10.59
2023-04-09T18:10:20.268Z,10.08
2023-04-09T18:15:18.986Z,9.47
2023-04-09T18:20:15.549Z,9.14
2023-04-09T18:25:12.015Z,8.62
2023-04-09T18:30:08.518Z,8.46
2023-04-09T18:35:04.985Z,8.23
2023-04-09T18:40:02.663Z,8.08
2023-04-09T18:44:59.252Z,8.04
2023-04-09T18:49:55.551Z,7.92
2023-04-09T18:54:51.896Z,7.60
2023-04-09T18:59:48.231Z,7.45
2023-04-09T19:04:45.042Z,7.27
2023-04-09T19:09:42.079Z,7.05
2023-04-09T19:14:40.163Z,6.89
2023-04-09T19:19:37.310Z,6.86
2023-04-09T19:24:33.804Z,7.00
2023-04-09T19:29:30.457Z,6.98
2023-04-09T19:34:26.770Z,6.82
2023-04-09T19:39:23.114Z,6.49
2023-04-09T19:44:19.403Z,6.16
2023-04-09T19:49:15.693Z,5.99
2023-04-09T19:54:11.963Z,5.84
2023-04-09T19:59:08.349Z,5.78
2023-04-09T20:04:05.264Z,5.64
2023-04-09T20:09:02.114Z,5.36
2023-04-09T20:13:58.473Z,5.24
2023-04-09T20:18:55.153Z,5.16
2023-04-09T20:23:51.618Z,5.12
2023-04-09T20:28:48.257Z,5.20
2023-04-09T20:33:44.630Z,5.22
2023-04-09T20:38:40.939Z,5.01
2023-04-09T20:43:38.368Z,5.04
2023-04-09T20:48:34.633Z,5.47
2023-04-09T20:53:30.920Z,5.16
2023-04-09T20:58:27.443Z,4.93
2023-04-09T21:03:23.951Z,4.79
2023-04-09T21:08:20.638Z,4.62
2023-04-09T21:13:16.907Z,4.40
2023-04-09T21:18:13.202Z,4.32
2023-04-09T21:23:09.522Z,4.24
2023-04-09T21:28:06.365Z,4.49
2023-04-09T21:33:05.651Z,4.36
2023-04-09T21:38:03.022Z,4.35
2023-04-09T21:42:59.292Z,4.35
2023-04-09T21:47:55.758Z,4.21
2023-04-09T21:52:52.052Z,4.06
2023-04-09T21:57:48.331Z,3.91
2023-04-09T22:02:44.765Z,3.85
2023-04-09T22:07:42.391Z,3.90
2023-04-09T22:12:38.705Z,3.95
2023-04-09T22:17:35.105Z,3.83
2023-04-09T22:22:32.279Z,3.63
2023-04-09T22:27:28.550Z,3.60
2023-04-09T22:32:24.947Z,3.57
2023-04-09T22:37:21.565Z,3.44
2023-04-09T22:42:17.928Z,3.52
2023-04-09T22:47:14.190Z,3.50
2023-04-09T22:52:10.458Z,3.50
2023-04-09T22:57:06.738Z,3.47
2023-04-09T23:02:03.114Z,3.53
2023-04-09T23:07:00.129Z,3.43
2023-04-09T23:11:57.056Z,3.36
2023-04-09T23:16:53.328Z,3.36
2023-04-09T23:21:49.591Z,3.37
2023-04-09T23:26:45.890Z,3.30
2023-04-09T23:31:42.200Z,3.30
2023-04-09T23:36:38.632Z,3.15
2023-04-09T23:41:35.024Z,3.21
2023-04-09T23:46:31.450Z,3.07
2023-04-09T23:51:27.881Z,3.06
2023-04-09T23:56:25.064Z,3.06
